YLIL weather

Lilydale Airport
Victoria, Australia

Public forecast

Using degrees Celsius for public forecast. Weather courtesy of forecast.io.

Closest aviation weather report (METAR) to Lilydale Airport

Closest report is Melbourne Essendon Airport, 22.2 nm (41.1 km) W. Retrieved 2019/10/19 13:00 UTC (53 minutes ago):

YMEN 191300Z AUTO 29009KT 9999 // NCD 09/05 Q1022

Closest aviation forecast (TAF) to Lilydale Airport

Closest forecast is Melbourne International Airport, 24.9 nm (46.2 km) W. Retrieved 2019/10/19 12:37 UTC (1 hour ago):

TAF YMML 191120Z 1912/2018 28010KT 9999 SCT045 FM191800 26010KT 9999 BKN040 FM200100 22014KT 9999 BKN045 FM200800 21010KT 9999 BKN020 FM201200 25008KT 9999 BKN015